Menu Horizontal
Willkommen auf der Webseite der privaten Wetterstation
von DIRNBERGER - Taufkirchen an der Pram

48°24´29,52" Nord  <>  13°32´13,20" Ost
Wetterdaten - Freitag, 23.02.2018 - Taufkirchen an der Pram     336 m ber NN
Wetterdaten: aktuell Freitag, 23.02.2018 23:00
Datum Zeit Temp. A. Feuchte A. Luftdruck Regen Wind Sonnenschein ET UV Solar Windchill Windben
23.02.2018 23:00 -1,7 C 85 % 1019,8 hPa 0,0 l/m 4,2 km/h 0 min 0,000 mm 0,0 UV-I 0 W/m -1,7 C 12,9 km/h
23.02.2018 22:50 -1,7 C 85 % 1019,7 hPa 0,0 l/m 5,1 km/h 0 min 0,000 mm 0,0 UV-I 0 W/m -1,7 C 14,5 km/h
23.02.2018 22:40 -1,6 C 84 % 1019,7 hPa 0,0 l/m 4,0 km/h 0 min 0,000 mm 0,0 UV-I 0 W/m -1,6 C 11,3 km/h
23.02.2018 22:30 -1,4 C 84 % 1019,7 hPa 0,0 l/m 2,8 km/h 0 min 0,000 mm 0,0 UV-I 0 W/m -1,4 C 11,3 km/h
23.02.2018 22:20 -1,3 C 83 % 1019,8 hPa 0,0 l/m 1,2 km/h 0 min 0,000 mm 0,0 UV-I 0 W/m -1,3 C 8,0 km/h
23.02.2018 22:10 -1,2 C 83 % 1019,8 hPa 0,0 l/m 0,1 km/h 0 min 0,000 mm 0,0 UV-I 0 W/m -1,2 C 3,2 km/h
23.02.2018 22:00 -1,1 C 83 % 1019,7 hPa 0,0 l/m 2,3 km/h 0 min 0,000 mm 0,0 UV-I 0 W/m -1,1 C 8,0 km/h
23.02.2018 21:50 -1,0 C 83 % 1019,7 hPa 0,0 l/m 3,5 km/h 0 min 0,000 mm 0,0 UV-I 0 W/m -1,0 C 9,7 km/h
23.02.2018 21:40 -0,9 C 82 % 1019,6 hPa 0,0 l/m 5,6 km/h 0 min 0,000 mm 0,0 UV-I 0 W/m -0,9 C 14,5 km/h
23.02.2018 21:30 -0,8 C 82 % 1019,6 hPa 0,0 l/m 6,1 km/h 0 min 0,000 mm 0,0 UV-I 0 W/m -0,8 C 14,5 km/h
23.02.2018 21:20 -0,7 C 81 % 1019,7 hPa 0,0 l/m 3,9 km/h 0 min 0,000 mm 0,0 UV-I 0 W/m -0,7 C 11,3 km/h
23.02.2018 21:10 -0,7 C 81 % 1019,7 hPa 0,0 l/m 4,5 km/h 0 min 0,000 mm 0,0 UV-I 0 W/m -0,7 C 16,1 km/h
23.02.2018 21:00 -0,8 C 81 % 1019,8 hPa 0,0 l/m 2,5 km/h 0 min 0,000 mm 0,0 UV-I 0 W/m -0,8 C 11,3 km/h
23.02.2018 20:50 -0,8 C 81 % 1019,6 hPa 0,0 l/m 0,4 km/h 0 min 0,000 mm 0,0 UV-I 0 W/m -0,8 C 6,4 km/h
23.02.2018 20:40 -0,8 C 82 % 1019,5 hPa 0,0 l/m 0,0 km/h 0 min 0,000 mm 0,0 UV-I 0 W/m -0,8 C 1,6 km/h
23.02.2018 20:30 -0,8 C 82 % 1019,3 hPa 0,0 l/m 0,0 km/h 0 min 0,000 mm 0,0 UV-I 0 W/m -0,8 C 1,6 km/h
23.02.2018 20:20 -0,8 C 82 % 1019,4 hPa 0,0 l/m 0,1 km/h 0 min 0,000 mm 0,0 UV-I 0 W/m -0,8 C 1,6 km/h
23.02.2018 20:10 -0,8 C 82 % 1019,3 hPa 0,0 l/m 0,1 km/h 0 min 0,000 mm 0,0 UV-I 0 W/m -0,8 C 3,2 km/h
23.02.2018 20:00 -0,8 C 82 % 1019,3 hPa 0,0 l/m 0,1 km/h 0 min 0,000 mm 0,0 UV-I 0 W/m -0,8 C 3,2 km/h
23.02.2018 19:50 -0,8 C 82 % 1019,2 hPa 0,0 l/m 0,1 km/h 0 min 0,000 mm 0,0 UV-I 0 W/m -0,8 C 3,2 km/h
23.02.2018 19:40 -0,8 C 81 % 1019,2 hPa 0,0 l/m 0,8 km/h 0 min 0,000 mm 0,0 UV-I 0 W/m -0,8 C 9,7 km/h
23.02.2018 19:30 -0,7 C 81 % 1019,3 hPa 0,0 l/m 1,4 km/h 0 min 0,000 mm 0,0 UV-I 0 W/m -0,7 C 8,0 km/h
23.02.2018 19:20 -0,6 C 80 % 1019,3 hPa 0,0 l/m 0,9 km/h 0 min 0,001 mm 0,0 UV-I 0 W/m -0,6 C 8,0 km/h
23.02.2018 19:10 -0,4 C 80 % 1019,0 hPa 0,0 l/m 3,9 km/h 0 min 0,025 mm 0,0 UV-I 0 W/m -0,4 C 14,5 km/h
23.02.2018 19:00 -0,2 C 78 % 1019,1 hPa 0,0 l/m 3,0 km/h 0 min 0,000 mm 0,0 UV-I 0 W/m -0,2 C 9,7 km/h
23.02.2018 18:50 0,1 C 77 % 1019,2 hPa 0,0 l/m 2,0 km/h 0 min 0,000 mm 0,0 UV-I 0 W/m 0,1 C 11,3 km/h
23.02.2018 18:40 0,3 C 74 % 1019,1 hPa 0,0 l/m 3,3 km/h 0 min 0,000 mm 0,0 UV-I 0 W/m 0,3 C 12,9 km/h
23.02.2018 18:30 0,4 C 70 % 1019,0 hPa 0,0 l/m 3,9 km/h 0 min 0,000 mm 0,0 UV-I 0 W/m 0,4 C 12,9 km/h
23.02.2018 18:20 0,4 C 69 % 1018,8 hPa 0,0 l/m 7,6 km/h 0 min 0,000 mm 0,0 UV-I 0 W/m -0,8 C 19,3 km/h
23.02.2018 18:10 0,4 C 68 % 1018,7 hPa 0,0 l/m 8,7 km/h 0 min 0,025 mm 0,0 UV-I 0 W/m -1,9 C 22,5 km/h
23.02.2018 18:00 0,3 C 69 % 1018,7 hPa 0,0 l/m 6,1 km/h 0 min 0,000 mm 0,0 UV-I 0 W/m 0,3 C 17,7 km/h
23.02.2018 17:50 0,3 C 68 % 1018,7 hPa 0,0 l/m 6,1 km/h 0 min 0,000 mm 0,0 UV-I 0 W/m 0,3 C 17,7 km/h
23.02.2018 17:40 0,4 C 68 % 1018,6 hPa 0,0 l/m 4,8 km/h 0 min 0,000 mm 0,0 UV-I 5 W/m 0,4 C 12,9 km/h
23.02.2018 17:30 0,5 C 68 % 1018,5 hPa 0,0 l/m 6,3 km/h 0 min 0,000 mm 0,0 UV-I 12 W/m 0,5 C 17,7 km/h
23.02.2018 17:20 0,6 C 68 % 1018,5 hPa 0,0 l/m 6,0 km/h 0 min 0,000 mm 0,0 UV-I 20 W/m 0,6 C 14,5 km/h
23.02.2018 17:10 0,7 C 68 % 1018,4 hPa 0,0 l/m 8,8 km/h 0 min 0,051 mm 0,0 UV-I 29 W/m -1,7 C 25,7 km/h
23.02.2018 17:00 0,8 C 67 % 1018,3 hPa 0,0 l/m 5,3 km/h 0 min 0,000 mm 0,0 UV-I 40 W/m 0,8 C 14,5 km/h
23.02.2018 16:50 1,0 C 67 % 1018,3 hPa 0,0 l/m 7,1 km/h 0 min 0,000 mm 0,0 UV-I 58 W/m 0,3 C 20,9 km/h
23.02.2018 16:40 1,2 C 67 % 1018,2 hPa 0,0 l/m 6,2 km/h 0 min 0,000 mm 0,0 UV-I 75 W/m 1,2 C 16,1 km/h
23.02.2018 16:30 1,3 C 66 % 1018,1 hPa 0,0 l/m 7,9 km/h 0 min 0,000 mm 0,3 UV-I 91 W/m -0,2 C 25,7 km/h
23.02.2018 16:20 1,5 C 66 % 1018,1 hPa 0,0 l/m 5,9 km/h 10 min 0,000 mm 0,5 UV-I 110 W/m 1,5 C 12,9 km/h
23.02.2018 16:10 1,5 C 67 % 1018,2 hPa 0,0 l/m 4,3 km/h 10 min 0,076 mm 0,5 UV-I 117 W/m 1,5 C 12,9 km/h
23.02.2018 16:00 1,5 C 67 % 1018,3 hPa 0,0 l/m 5,5 km/h 10 min 0,000 mm 0,5 UV-I 103 W/m 1,5 C 20,9 km/h
23.02.2018 15:50 1,6 C 68 % 1018,3 hPa 0,0 l/m 4,7 km/h 10 min 0,000 mm 0,6 UV-I 113 W/m 1,6 C 14,5 km/h
23.02.2018 15:40 1,6 C 67 % 1018,2 hPa 0,0 l/m 6,4 km/h 10 min 0,000 mm 0,6 UV-I 123 W/m 1,6 C 20,9 km/h
23.02.2018 15:30 1,7 C 67 % 1018,1 hPa 0,0 l/m 6,1 km/h 10 min 0,000 mm 0,7 UV-I 149 W/m 1,7 C 20,9 km/h
23.02.2018 15:20 1,7 C 67 % 1017,9 hPa 0,0 l/m 8,1 km/h 10 min 0,000 mm 0,8 UV-I 179 W/m 0,0 C 25,7 km/h
23.02.2018 15:10 1,7 C 67 % 1018,0 hPa 0,0 l/m 7,1 km/h 10 min 0,102 mm 0,9 UV-I 238 W/m 1,0 C 19,3 km/h
23.02.2018 15:00 1,6 C 67 % 1018,0 hPa 0,0 l/m 6,7 km/h 10 min 0,000 mm 1,0 UV-I 272 W/m 1,3 C 20,9 km/h
23.02.2018 14:50 1,5 C 67 % 1017,9 hPa 0,0 l/m 6,9 km/h 10 min 0,000 mm 1,0 UV-I 216 W/m 1,0 C 24,1 km/h
23.02.2018 14:40 1,6 C 69 % 1017,8 hPa 0,0 l/m 6,2 km/h 10 min 0,000 mm 1,1 UV-I 220 W/m 1,6 C 17,7 km/h
23.02.2018 14:30 1,4 C 67 % 1017,7 hPa 0,0 l/m 7,3 km/h 10 min 0,000 mm 1,1 UV-I 216 W/m 0,5 C 25,7 km/h
23.02.2018 14:20 1,4 C 69 % 1017,7 hPa 0,0 l/m 12,2 km/h 10 min 0,000 mm 1,1 UV-I 197 W/m -3,5 C 27,4 km/h
23.02.2018 14:10 1,4 C 68 % 1017,9 hPa 0,0 l/m 13,5 km/h 10 min 0,127 mm 1,1 UV-I 192 W/m -4,4 C 27,4 km/h
23.02.2018 14:00 1,4 C 69 % 1017,8 hPa 0,0 l/m 15,5 km/h 10 min 0,000 mm 1,3 UV-I 257 W/m -5,6 C 29,0 km/h
23.02.2018 13:50 1,5 C 68 % 1017,9 hPa 0,0 l/m 9,3 km/h 10 min 0,000 mm 1,4 UV-I 264 W/m -1,2 C 25,7 km/h
23.02.2018 13:40 1,4 C 68 % 1017,8 hPa 0,0 l/m 8,8 km/h 10 min 0,000 mm 1,5 UV-I 295 W/m -0,9 C 24,1 km/h
23.02.2018 13:30 1,3 C 71 % 1017,9 hPa 0,0 l/m 8,3 km/h 10 min 0,000 mm 1,6 UV-I 314 W/m -0,6 C 22,5 km/h
23.02.2018 13:20 1,1 C 70 % 1017,9 hPa 0,0 l/m 10,1 km/h 10 min 0,000 mm 1,5 UV-I 264 W/m -2,3 C 25,7 km/h
23.02.2018 13:10 0,9 C 70 % 1018,0 hPa 0,0 l/m 13,6 km/h 10 min 0,152 mm 1,6 UV-I 340 W/m -5,0 C 22,5 km/h
23.02.2018 13:00 1,1 C 69 % 1018,0 hPa 0,0 l/m 11,1 km/h 10 min 0,000 mm 1,6 UV-I 316 W/m -3,1 C 22,5 km/h
23.02.2018 12:50 1,1 C 70 % 1018,1 hPa 0,0 l/m 8,3 km/h 10 min 0,000 mm 1,7 UV-I 294 W/m -0,8 C 20,9 km/h
23.02.2018 12:40 1,1 C 69 % 1018,0 hPa 0,0 l/m 6,2 km/h 10 min 0,000 mm 1,7 UV-I 337 W/m 1,1 C 20,9 km/h
23.02.2018 12:30 0,8 C 72 % 1018,2 hPa 0,0 l/m 10,2 km/h 10 min 0,000 mm 1,9 UV-I 433 W/m -2,7 C 25,7 km/h
23.02.2018 12:20 0,6 C 72 % 1018,2 hPa 0,0 l/m 11,5 km/h 10 min 0,000 mm 2,0 UV-I 455 W/m -3,9 C 29,0 km/h
23.02.2018 12:10 0,4 C 73 % 1018,1 hPa 0,0 l/m 10,4 km/h 10 min 0,102 mm 2,0 UV-I 423 W/m -3,3 C 24,1 km/h
23.02.2018 12:00 0,1 C 73 % 1018,2 hPa 0,0 l/m 11,6 km/h 10 min 0,000 mm 2,0 UV-I 474 W/m -4,6 C 25,7 km/h
23.02.2018 11:50 -0,2 C 73 % 1018,3 hPa 0,0 l/m 7,0 km/h 10 min 0,000 mm 1,7 UV-I 242 W/m -0,8 C 24,1 km/h
23.02.2018 11:40 -0,3 C 73 % 1018,3 hPa 0,0 l/m 7,8 km/h 10 min 0,000 mm 1,5 UV-I 183 W/m -1,8 C 22,5 km/h
23.02.2018 11:30 -0,4 C 74 % 1018,4 hPa 0,0 l/m 3,3 km/h 10 min 0,000 mm 1,4 UV-I 202 W/m -0,4 C 14,5 km/h
23.02.2018 11:20 -0,6 C 74 % 1018,5 hPa 0,0 l/m 4,6 km/h 10 min 0,000 mm 1,3 UV-I 191 W/m -0,6 C 14,5 km/h
23.02.2018 11:10 -0,7 C 75 % 1018,5 hPa 0,0 l/m 4,3 km/h 10 min 0,076 mm 1,2 UV-I 156 W/m -0,7 C 17,7 km/h
23.02.2018 11:00 -0,8 C 75 % 1018,5 hPa 0,0 l/m 6,2 km/h 10 min 0,000 mm 1,1 UV-I 172 W/m -0,8 C 14,5 km/h
23.02.2018 10:50 -1,0 C 77 % 1018,5 hPa 0,0 l/m 4,8 km/h 10 min 0,000 mm 1,1 UV-I 199 W/m -1,0 C 11,3 km/h
23.02.2018 10:40 -1,3 C 76 % 1018,6 hPa 0,0 l/m 8,9 km/h 10 min 0,000 mm 1,1 UV-I 164 W/m -3,9 C 20,9 km/h
23.02.2018 10:30 -1,3 C 76 % 1018,6 hPa 0,0 l/m 10,0 km/h 10 min 0,000 mm 1,0 UV-I 161 W/m -4,9 C 24,1 km/h
23.02.2018 10:20 -1,4 C 77 % 1018,5 hPa 0,0 l/m 8,8 km/h 10 min 0,000 mm 1,0 UV-I 168 W/m -3,9 C 22,5 km/h
23.02.2018 10:10 -1,4 C 77 % 1018,5 hPa 0,0 l/m 6,5 km/h 10 min 0,051 mm 0,9 UV-I 150 W/m -1,5 C 20,9 km/h
23.02.2018 10:00 -1,6 C 76 % 1018,5 hPa 0,0 l/m 5,7 km/h 10 min 0,000 mm 0,9 UV-I 129 W/m -1,6 C 20,9 km/h
23.02.2018 09:50 -1,7 C 77 % 1018,4 hPa 0,0 l/m 5,4 km/h 10 min 0,000 mm 0,8 UV-I 119 W/m -1,7 C 12,9 km/h
23.02.2018 09:40 -1,8 C 76 % 1018,3 hPa 0,0 l/m 7,2 km/h 10 min 0,000 mm 0,8 UV-I 126 W/m -2,7 C 14,5 km/h
23.02.2018 09:30 -2,0 C 77 % 1018,4 hPa 0,0 l/m 9,7 km/h 10 min 0,000 mm 0,7 UV-I 117 W/m -5,4 C 19,3 km/h
23.02.2018 09:20 -2,1 C 77 % 1018,3 hPa 0,0 l/m 9,3 km/h 10 min 0,000 mm 0,7 UV-I 124 W/m -5,1 C 17,7 km/h
23.02.2018 09:10 -2,2 C 77 % 1018,3 hPa 0,0 l/m 9,2 km/h 0 min 0,025 mm 0,6 UV-I 101 W/m -5,1 C 19,3 km/h
23.02.2018 09:00 -2,2 C 78 % 1018,2 hPa 0,0 l/m 6,1 km/h 0 min 0,000 mm 0,6 UV-I 94 W/m -2,2 C 14,5 km/h
23.02.2018 08:50 -2,3 C 77 % 1018,2 hPa 0,0 l/m 8,4 km/h 0 min 0,000 mm 0,5 UV-I 86 W/m -4,5 C 17,7 km/h
23.02.2018 08:40 -2,4 C 78 % 1018,1 hPa 0,0 l/m 4,7 km/h 0 min 0,000 mm 0,5 UV-I 80 W/m -2,4 C 14,5 km/h
23.02.2018 08:30 -2,5 C 77 % 1018,1 hPa 0,0 l/m 7,0 km/h 0 min 0,000 mm 0,2 UV-I 68 W/m -3,2 C 17,7 km/h
23.02.2018 08:20 -2,6 C 77 % 1018,2 hPa 0,0 l/m 6,4 km/h 0 min 0,000 mm 0,0 UV-I 54 W/m -2,6 C 14,5 km/h
23.02.2018 08:10 -2,6 C 78 % 1018,2 hPa 0,0 l/m 4,3 km/h 0 min 0,000 mm 0,0 UV-I 42 W/m -2,6 C 12,9 km/h
23.02.2018 08:00 -2,7 C 78 % 1018,2 hPa 0,0 l/m 6,4 km/h 0 min 0,026 mm 0,0 UV-I 29 W/m -2,7 C 19,3 km/h
23.02.2018 07:50 -2,7 C 78 % 1018,1 hPa 0,0 l/m 6,9 km/h 0 min 0,000 mm 0,0 UV-I 20 W/m -3,3 C 19,3 km/h
23.02.2018 07:30 -2,7 C 78 % 1018,1 hPa 0,0 l/m 6,4 km/h 0 min 0,000 mm 0,0 UV-I 8 W/m -2,7 C 19,3 km/h
23.02.2018 07:20 -2,7 C 78 % 1018,1 hPa 0,0 l/m 4,8 km/h 0 min 0,000 mm 0,0 UV-I 4 W/m -2,7 C 16,1 km/h
23.02.2018 07:10 -2,7 C 78 % 1018,0 hPa 0,0 l/m 4,8 km/h 0 min 0,000 mm 0,0 UV-I 0 W/m -2,7 C 19,3 km/h
23.02.2018 07:00 -2,7 C 78 % 1017,9 hPa 0,0 l/m 6,4 km/h 0 min 0,000 mm 0,0 UV-I 0 W/m -2,7 C 19,3 km/h
23.02.2018 06:50 -2,7 C 78 % 1017,8 hPa 0,0 l/m 3,2 km/h 0 min 0,000 mm 0,0 UV-I 0 W/m -2,7 C 17,7 km/h
23.02.2018 06:40 -2,7 C 78 % 1017,7 hPa 0,0 l/m 6,4 km/h 0 min 0,000 mm 0,0 UV-I 0 W/m -2,7 C 19,3 km/h
23.02.2018 06:30 -2,7 C 78 % 1017,8 hPa 0,0 l/m 4,8 km/h 0 min 0,000 mm 0,0 UV-I 0 W/m -2,7 C 14,5 km/h
23.02.2018 06:20 -2,7 C 78 % 1017,7 hPa 0,0 l/m 3,2 km/h 0 min 0,000 mm 0,0 UV-I 0 W/m -2,7 C 12,9 km/h
23.02.2018 06:10 -2,7 C 78 % 1017,7 hPa 0,0 l/m 4,8 km/h 0 min 0,000 mm 0,0 UV-I 0 W/m -2,7 C 19,3 km/h
23.02.2018 06:00 -2,7 C 79 % 1017,8 hPa 0,0 l/m 3,2 km/h 0 min 0,000 mm 0,0 UV-I 0 W/m -2,7 C 9,7 km/h
23.02.2018 05:50 -2,7 C 79 % 1017,8 hPa 0,0 l/m 1,6 km/h 0 min 0,000 mm 0,0 UV-I 0 W/m -2,7 C 8,0 km/h
23.02.2018 05:40 -2,7 C 79 % 1017,8 hPa 0,0 l/m 3,2 km/h 0 min 0,000 mm 0,0 UV-I 0 W/m -2,7 C 14,5 km/h
23.02.2018 05:30 -2,7 C 78 % 1017,7 hPa 0,0 l/m 3,2 km/h 0 min 0,000 mm 0,0 UV-I 0 W/m -2,7 C 11,3 km/h
23.02.2018 05:20 -2,7 C 78 % 1017,7 hPa 0,0 l/m 4,8 km/h 0 min 0,000 mm 0,0 UV-I 0 W/m -2,7 C 12,9 km/h
23.02.2018 05:10 -2,7 C 78 % 1017,7 hPa 0,0 l/m 8,0 km/h 0 min 0,000 mm 0,0 UV-I 0 W/m -4,5 C 20,9 km/h
23.02.2018 05:00 -2,7 C 78 % 1017,7 hPa 0,0 l/m 6,4 km/h 0 min 0,025 mm 0,0 UV-I 0 W/m -2,7 C 17,7 km/h
23.02.2018 04:50 -2,8 C 78 % 1017,7 hPa 0,0 l/m 8,0 km/h 0 min 0,000 mm 0,0 UV-I 0 W/m -4,6 C 20,9 km/h
23.02.2018 04:40 -2,8 C 79 % 1017,7 hPa 0,0 l/m 3,2 km/h 0 min 0,000 mm 0,0 UV-I 0 W/m -2,8 C 14,5 km/h
23.02.2018 04:30 -2,8 C 79 % 1017,8 hPa 0,0 l/m 4,8 km/h 0 min 0,000 mm 0,0 UV-I 0 W/m -2,8 C 17,7 km/h
23.02.2018 04:20 -2,9 C 79 % 1017,7 hPa 0,0 l/m 4,8 km/h 0 min 0,000 mm 0,0 UV-I 0 W/m -2,9 C 17,7 km/h
23.02.2018 04:10 -2,9 C 79 % 1017,8 hPa 0,0 l/m 4,8 km/h 0 min 0,000 mm 0,0 UV-I 0 W/m -2,9 C 12,9 km/h
23.02.2018 04:00 -2,9 C 79 % 1017,7 hPa 0,0 l/m 4,8 km/h 0 min 0,000 mm 0,0 UV-I 0 W/m -2,9 C 12,9 km/h
23.02.2018 03:50 -3,0 C 79 % 1017,8 hPa 0,0 l/m 3,2 km/h 0 min 0,000 mm 0,0 UV-I 0 W/m -3,0 C 11,3 km/h
23.02.2018 03:40 -3,0 C 79 % 1017,9 hPa 0,0 l/m 1,6 km/h 0 min 0,000 mm 0,0 UV-I 0 W/m -3,0 C 8,0 km/h
23.02.2018 03:30 -3,1 C 79 % 1018,0 hPa 0,0 l/m 1,6 km/h 0 min 0,000 mm 0,0 UV-I 0 W/m -3,1 C 6,4 km/h
23.02.2018 03:20 -3,0 C 79 % 1018,0 hPa 0,0 l/m 0,0 km/h 0 min 0,000 mm 0,0 UV-I 0 W/m -3,0 C 6,4 km/h
23.02.2018 03:10 -2,9 C 79 % 1018,0 hPa 0,0 l/m 1,6 km/h 0 min 0,000 mm 0,0 UV-I 0 W/m -2,9 C 6,4 km/h
23.02.2018 03:00 -2,9 C 79 % 1018,1 hPa 0,0 l/m 0,0 km/h 0 min 0,000 mm 0,0 UV-I 0 W/m -2,9 C 3,2 km/h
23.02.2018 02:50 -2,9 C 79 % 1018,2 hPa 0,0 l/m 1,6 km/h 0 min 0,000 mm 0,0 UV-I 0 W/m -2,9 C 8,0 km/h
23.02.2018 02:40 -2,8 C 79 % 1018,1 hPa 0,0 l/m 3,2 km/h 0 min 0,000 mm 0,0 UV-I 0 W/m -2,8 C 12,9 km/h
23.02.2018 02:30 -2,8 C 80 % 1018,3 hPa 0,0 l/m 0,0 km/h 0 min 0,000 mm 0,0 UV-I 0 W/m -2,8 C 6,4 km/h
23.02.2018 02:20 -2,9 C 81 % 1018,3 hPa 0,0 l/m 0,0 km/h 0 min 0,000 mm 0,0 UV-I 0 W/m -2,9 C 3,2 km/h
23.02.2018 02:10 -2,9 C 81 % 1018,4 hPa 0,0 l/m 0,0 km/h 0 min 0,000 mm 0,0 UV-I 0 W/m -2,9 C 0,0 km/h
23.02.2018 02:00 -2,9 C 81 % 1018,5 hPa 0,0 l/m 0,0 km/h 0 min 0,000 mm 0,0 UV-I 0 W/m -2,9 C 0,0 km/h
23.02.2018 01:50 -2,9 C 81 % 1018,5 hPa 0,0 l/m 0,0 km/h 0 min 0,000 mm 0,0 UV-I 0 W/m -2,9 C 0,0 km/h
23.02.2018 01:40 -2,9 C 81 % 1018,5 hPa 0,0 l/m 0,0 km/h 0 min 0,000 mm 0,0 UV-I 0 W/m -2,9 C 6,4 km/h
23.02.2018 01:30 -2,9 C 81 % 1018,5 hPa 0,0 l/m 0,0 km/h 0 min 0,000 mm 0,0 UV-I 0 W/m -2,9 C 6,4 km/h
23.02.2018 01:20 -2,9 C 81 % 1018,5 hPa 0,0 l/m 1,6 km/h 0 min 0,000 mm 0,0 UV-I 0 W/m -2,9 C 8,0 km/h
23.02.2018 01:10 -2,9 C 81 % 1018,3 hPa 0,0 l/m 1,6 km/h 0 min 0,000 mm 0,0 UV-I 0 W/m -2,9 C 8,0 km/h
23.02.2018 01:00 -3,0 C 81 % 1018,4 hPa 0,0 l/m 1,6 km/h 0 min 0,000 mm 0,0 UV-I 0 W/m -3,0 C 8,0 km/h
23.02.2018 00:50 -2,9 C 81 % 1018,4 hPa 0,0 l/m 0,0 km/h 0 min 0,000 mm 0,0 UV-I 0 W/m -2,9 C 6,4 km/h
23.02.2018 00:40 -2,9 C 81 % 1018,5 hPa 0,0 l/m 0,0 km/h 0 min 0,000 mm 0,0 UV-I 0 W/m -2,9 C 3,2 km/h
23.02.2018 00:30 -2,9 C 81 % 1018,6 hPa 0,0 l/m 0,0 km/h 0 min 0,000 mm 0,0 UV-I 0 W/m -2,9 C 6,4 km/h
23.02.2018 00:20 -2,8 C 81 % 1018,6 hPa 0,0 l/m 0,0 km/h 0 min 0,000 mm 0,0 UV-I 0 W/m -2,8 C 6,4 km/h
23.02.2018 00:10 -2,8 C 82 % 1018,6 hPa 0,0 l/m 0,0 km/h 0 min 0,000 mm 0,0 UV-I 0 W/m -2,8 C 11,3 km/h
23.02.2018 00:00 -2,8 C 82 % 1018,6 hPa 0,0 l/m 0,0 km/h 0 min 0,000 mm 0,0 UV-I 0 W/m -2,8 C 8,0 km/h
_ Min-Zeit 03:30 16:30 14:30 - 20:40 - - - - 14:00 02:10
Minimum _ -3,1 C 66 % 1017,7 hPa - 0,0 km/h - - - - -5,6 C 0,0 km/h
_ Max-Zeit 15:10 23:00 23:00 23:00 14:00 16:20 13:10 12:20 12:00 15:30 14:00
Maximum _ 1,8 C 85 % 1019,8 hPa 0,0 l/m 15,5 km/h
O
10 min 0,152 mm 2,0 UV-I 474 W/m 1,7 C 29,0 km/h
O-SO
Durchschnitt _ -1,1 C 76 % 1018,4 hPa #0,0 l/m 4,9 km/h #7:10 h #0,864 mm 1,1 UV-I 75 W/m -1,8 C 14,8 km/h